Time;durP1;ratioP1;P1;durP2;ratioP2;P2;SDS_P1;SDS_P2;PMS_P1;PMS_P2;Temp;Humidity;BMP_temperature;BMP_pressure;BME280_temperature;BME280_humidity;BME280_pressure;Samples;Min_cycle;Max_cycle;Signal;HPM_P1;HPM_P2
2022/09/18 00:00:14;;;;;;;5.95;1.60;;;13.40;99.90;;;;;;4060514;29;20481;-71
2022/09/18 00:02:14;;;;;;;8.02;1.50;;;13.30;99.90;;;;;;4061908;29;20476;-71
2022/09/18 00:04:15;;;;;;;7.57;2.13;;;13.40;99.90;;;;;;4061504;29;20048;-71
2022/09/18 00:06:19;;;;;;;7.15;1.40;;;13.30;99.90;;;;;;4062908;29;20131;-71
2022/09/18 00:08:19;;;;;;;3.75;1.20;;;13.30;99.90;;;;;;4060469;29;20032;-71
2022/09/18 00:10:20;;;;;;;3.88;1.30;;;13.40;99.90;;;;;;4061627;29;20568;-70
2022/09/18 00:12:20;;;;;;;4.93;1.60;;;13.40;99.90;;;;;;4060020;29;20055;-71
2022/09/18 00:14:22;;;;;;;5.55;1.65;;;13.30;99.90;;;;;;4063378;29;20493;-71
2022/09/18 00:16:24;;;;;;;8.43;2.15;;;13.30;99.90;;;;;;4063398;29;20091;-71
2022/09/18 00:18:25;;;;;;;5.03;1.55;;;13.40;99.90;;;;;;4063930;29;20051;-70
2022/09/18 00:20:26;;;;;;;6.53;1.83;;;13.30;99.90;;;;;;4061418;29;20063;-70
2022/09/18 00:22:26;;;;;;;4.10;1.52;;;13.30;99.90;;;;;;4063051;29;20047;-71
2022/09/18 00:24:27;;;;;;;8.85;1.77;;;13.30;99.90;;;;;;4064415;29;20497;-71
2022/09/18 00:26:28;;;;;;;6.15;1.83;;;13.30;99.90;;;;;;4063536;29;20037;-71
2022/09/18 00:28:30;;;;;;;5.07;1.63;;;13.30;99.90;;;;;;4064476;29;20036;-71
2022/09/18 00:30:31;;;;;;;7.10;1.90;;;13.30;99.90;;;;;;4062978;29;20654;-71
2022/09/18 00:32:31;;;;;;;5.43;1.45;;;13.30;99.90;;;;;;4064303;29;20032;-71
2022/09/18 00:34:32;;;;;;;7.03;1.98;;;13.20;99.90;;;;;;4063533;29;20047;-71
2022/09/18 00:36:34;;;;;;;7.85;2.03;;;13.30;99.90;;;;;;4063531;29;20488;-72
2022/09/18 00:38:35;;;;;;;4.53;1.58;;;13.20;99.90;;;;;;4064327;29;20036;-71
2022/09/18 00:40:36;;;;;;;4.60;1.58;;;13.30;99.90;;;;;;4062679;29;20044;-71
2022/09/18 00:42:36;;;;;;;5.28;1.65;;;13.30;99.90;;;;;;4066535;29;20043;-72
2022/09/18 00:44:40;;;;;;;6.22;1.65;;;13.30;99.90;;;;;;4067447;29;20052;-71
2022/09/18 00:46:43;;;;;;;5.00;1.45;;;13.30;99.90;;;;;;4066920;29;20040;-72
2022/09/18 00:49:12;;;;;;;6.65;1.70;;;13.30;99.90;;;;;;4067156;29;20044;-71
2022/09/18 00:51:14;;;;;;;6.80;1.42;;;13.30;99.90;;;;;;4064841;29;20516;-70
2022/09/18 00:53:15;;;;;;;6.43;1.60;;;13.30;99.90;;;;;;4067538;29;20064;-71
2022/09/18 00:55:21;;;;;;;6.28;1.88;;;13.30;99.90;;;;;;4066663;29;20032;-70
2022/09/18 00:57:26;;;;;;;6.22;1.55;;;13.30;99.90;;;;;;4067111;29;20095;-71
2022/09/18 00:59:30;;;;;;;5.03;1.85;;;13.30;99.90;;;;;;4066665;29;20036;-71
2022/09/18 01:01:31;;;;;;;4.93;1.67;;;13.30;99.90;;;;;;4066534;29;20032;-70
2022/09/18 01:03:32;;;;;;;4.97;1.67;;;13.30;99.90;;;;;;4064321;29;20090;-71
2022/09/18 01:05:35;;;;;;;6.25;1.58;;;13.20;99.90;;;;;;4064310;29;20108;-68
2022/09/18 01:08:17;;;;;;;4.72;1.42;;;13.30;99.90;;;;;;4067175;29;20051;-72
2022/09/18 01:10:45;;;;;;;4.60;1.33;;;13.30;99.90;;;;;;4057603;29;20044;-71
2022/09/18 01:12:59;;;;;;;5.38;1.60;;;13.30;99.90;;;;;;4063935;29;20064;-71
2022/09/18 01:15:33;;;;;;;5.18;1.30;;;13.30;99.90;;;;;;4066238;29;20032;-71
2022/09/18 01:18:06;;;;;;;3.83;1.20;;;13.30;99.90;;;;;;4068619;28;20564;-71
2022/09/18 01:20:25;;;;;;;6.38;1.70;;;13.40;99.90;;;;;;4062383;29;20048;-69
2022/09/18 01:23:01;;;;;;;5.97;1.50;;;13.30;99.90;;;;;;4067773;28;20047;-71
2022/09/18 01:25:12;;;;;;;4.30;1.70;;;13.30;99.90;;;;;;4045577;29;20483;-71
2022/09/18 01:27:40;;;;;;;4.50;1.27;;;13.40;99.90;;;;;;4056169;29;20481;-71
2022/09/18 01:29:51;;;;;;;5.00;1.48;;;13.40;99.90;;;;;;4059253;29;20123;-72
2022/09/18 01:32:09;;;;;;;5.60;1.30;;;13.40;99.90;;;;;;4063483;29;20040;-71
2022/09/18 01:34:36;;;;;;;4.57;1.30;;;13.40;99.90;;;;;;4064067;29;20397;-72
2022/09/18 01:36:43;;;;;;;4.57;1.20;;;13.40;99.90;;;;;;4065734;29;20055;-71
2022/09/18 01:38:55;;;;;;;4.45;1.40;;;13.40;99.90;;;;;;4066258;29;20114;-71
2022/09/18 01:41:05;;;;;;;4.90;1.15;;;13.40;99.90;;;;;;4065392;29;20095;-71
2022/09/18 01:43:09;;;;;;;3.67;1.10;;;13.40;99.90;;;;;;4066070;29;20450;-71
2022/09/18 01:45:15;;;;;;;5.63;0.98;;;13.40;99.90;;;;;;4065917;29;20044;-71
2022/09/18 01:47:18;;;;;;;3.58;1.23;;;13.40;99.90;;;;;;4066470;29;20040;-71
2022/09/18 01:49:23;;;;;;;2.80;1.08;;;13.30;99.90;;;;;;4065411;29;20028;-72
2022/09/18 01:51:46;;;;;;;8.65;1.20;;;13.30;99.90;;;;;;4066021;29;22412;-71
2022/09/18 01:54:11;;;;;;;5.10;1.50;;;13.30;99.90;;;;;;4063284;29;20044;-72
2022/09/18 01:56:30;;;;;;;7.65;1.67;;;13.30;99.90;;;;;;4061569;29;20033;-72
2022/09/18 01:58:33;;;;;;;5.15;1.60;;;13.30;99.90;;;;;;4066223;29;20044;-71
2022/09/18 02:00:37;;;;;;;6.43;1.77;;;13.30;99.90;;;;;;4064998;29;20135;-72
2022/09/18 02:02:52;;;;;;;4.05;1.65;;;13.20;99.90;;;;;;4064259;29;20042;-72
2022/09/18 02:04:58;;;;;;;6.97;1.98;;;13.20;99.90;;;;;;4061231;29;20135;-71
2022/09/18 02:07:18;;;;;;;4.80;1.52;;;13.10;99.90;;;;;;4065206;29;20032;-72
2022/09/18 02:09:19;;;;;;;3.65;1.25;;;13.20;99.90;;;;;;4064009;29;20040;-71
2022/09/18 02:11:21;;;;;;;3.38;1.35;;;13.20;99.90;;;;;;4065358;29;20032;-72
2022/09/18 02:13:31;;;;;;;5.18;1.90;;;13.20;99.90;;;;;;4065519;29;20029;-72
2022/09/18 02:15:36;;;;;;;3.13;1.55;;;13.10;99.90;;;;;;4065627;29;20677;-72
2022/09/18 02:17:56;;;;;;;5.35;1.45;;;13.20;99.90;;;;;;4065785;29;20040;-71
2022/09/18 02:20:00;;;;;;;3.95;1.38;;;13.10;99.90;;;;;;4063505;29;20097;-72
2022/09/18 02:22:05;;;;;;;2.92;1.25;;;13.10;99.90;;;;;;4064935;29;20037;-72
2022/09/18 02:24:09;;;;;;;4.85;1.40;;;13.10;99.90;;;;;;4064998;29;20048;-64
2022/09/18 02:26:11;;;;;;;6.20;2.03;;;13.10;99.90;;;;;;4065111;29;20510;-64
2022/09/18 02:28:16;;;;;;;5.45;1.90;;;13.10;99.90;;;;;;4065365;29;20320;-65
2022/09/18 02:30:17;;;;;;;5.35;1.88;;;13.10;99.90;;;;;;4063004;29;20092;-65
2022/09/18 02:32:17;;;;;;;6.43;1.80;;;13.00;99.90;;;;;;4065889;29;20544;-64
2022/09/18 02:34:19;;;;;;;4.47;1.83;;;13.00;99.90;;;;;;4065634;29;20149;-64
2022/09/18 02:36:52;;;;;;;4.72;2.08;;;13.00;99.90;;;;;;4065003;29;20024;-66
2022/09/18 02:39:09;;;;;;;5.28;2.25;;;13.00;99.90;;;;;;4061692;29;20036;-64
2022/09/18 02:41:44;;;;;;;4.63;1.83;;;13.00;99.90;;;;;;4064077;29;20024;-64
2022/09/18 02:43:54;;;;;;;4.90;2.03;;;13.10;99.90;;;;;;4061293;29;20032;-64
2022/09/18 02:46:12;;;;;;;7.93;2.60;;;13.10;99.90;;;;;;4065147;29;20040;-64
2022/09/18 02:48:48;;;;;;;7.38;2.05;;;13.00;99.90;;;;;;4062464;29;20039;-65
2022/09/18 02:51:46;;;;;;;5.68;2.15;;;13.00;99.90;;;;;;4063464;29;20028;-64
2022/09/18 02:53:57;;;;;;;4.82;1.98;;;13.00;99.90;;;;;;4025338;29;20085;-64
2022/09/18 02:56:13;;;;;;;5.85;1.90;;;13.00;99.90;;;;;;4017650;29;20048;-65
2022/09/18 02:58:50;;;;;;;5.80;2.35;;;13.00;99.90;;;;;;4029960;29;20523;-64
2022/09/18 03:00:53;;;;;;;4.93;1.70;;;13.00;99.90;;;;;;4062948;29;20515;-64
2022/09/18 03:02:58;;;;;;;4.13;1.55;;;13.00;99.90;;;;;;4061535;29;20103;-64
2022/09/18 03:04:58;;;;;;;6.63;2.22;;;13.00;99.90;;;;;;4062788;29;20051;-64
2022/09/18 03:06:59;;;;;;;5.88;2.30;;;13.00;99.90;;;;;;4064721;29;20032;-64
2022/09/18 03:09:00;;;;;;;6.25;1.75;;;12.90;99.90;;;;;;4064664;29;20048;-65
2022/09/18 03:11:00;;;;;;;2.80;1.73;;;12.90;99.90;;;;;;4064358;29;20382;-64
2022/09/18 03:13:01;;;;;;;6.25;2.28;;;13.00;99.90;;;;;;4065181;29;20513;-64
2022/09/18 03:15:02;;;;;;;4.05;1.50;;;13.00;99.90;;;;;;4065102;29;20028;-65
2022/09/18 03:17:03;;;;;;;5.07;1.95;;;13.00;99.90;;;;;;4064522;29;20040;-64
2022/09/18 03:19:03;;;;;;;6.00;2.00;;;13.00;99.90;;;;;;4064827;29;20048;-65
2022/09/18 03:21:05;;;;;;;6.22;1.63;;;13.00;99.90;;;;;;4064307;29;20614;-64
2022/09/18 03:23:05;;;;;;;6.35;2.05;;;13.00;99.90;;;;;;4064507;29;20036;-65
2022/09/18 03:25:07;;;;;;;5.60;1.60;;;13.00;99.90;;;;;;4062947;29;20048;-65
2022/09/18 03:27:09;;;;;;;3.60;1.67;;;13.00;99.90;;;;;;4064899;29;20048;-64
2022/09/18 03:29:11;;;;;;;7.18;1.80;;;13.10;99.90;;;;;;4064466;29;20064;-65
2022/09/18 03:31:11;;;;;;;5.23;1.83;;;13.00;99.90;;;;;;4063917;29;20039;-64
2022/09/18 03:33:12;;;;;;;6.10;1.55;;;13.00;99.90;;;;;;4064950;29;20276;-65
2022/09/18 03:35:13;;;;;;;5.45;1.75;;;13.00;99.90;;;;;;4062793;29;20036;-64
2022/09/18 03:37:13;;;;;;;4.05;1.50;;;12.90;99.90;;;;;;4064813;29;20032;-64
2022/09/18 03:39:14;;;;;;;5.15;1.90;;;13.00;99.90;;;;;;4064163;29;20100;-65
2022/09/18 03:41:15;;;;;;;4.72;1.83;;;13.00;99.90;;;;;;4064033;29;20033;-65
2022/09/18 03:43:15;;;;;;;4.45;1.55;;;12.90;99.90;;;;;;4064706;29;20039;-64
2022/09/18 03:45:16;;;;;;;3.53;1.60;;;12.90;99.90;;;;;;4063735;29;20131;-65
2022/09/18 03:47:17;;;;;;;4.55;1.40;;;13.00;99.90;;;;;;4064639;29;20407;-66
2022/09/18 03:49:17;;;;;;;3.78;1.27;;;12.90;99.90;;;;;;4064143;29;20044;-64
2022/09/18 03:51:19;;;;;;;2.40;1.20;;;12.90;99.90;;;;;;4063652;29;20100;-64
2022/09/18 03:53:19;;;;;;;5.60;1.73;;;12.90;99.90;;;;;;4064662;29;20055;-65
2022/09/18 03:55:21;;;;;;;5.78;1.50;;;12.90;99.90;;;;;;4063006;29;20033;-66
2022/09/18 03:57:22;;;;;;;3.38;1.33;;;12.80;99.90;;;;;;4062239;29;20122;-65
2022/09/18 03:59:22;;;;;;;3.33;1.30;;;12.90;99.90;;;;;;4063687;29;20508;-64
2022/09/18 04:01:23;;;;;;;3.25;1.50;;;12.90;99.90;;;;;;4062733;29;20047;-64
2022/09/18 04:03:23;;;;;;;3.13;1.15;;;12.90;99.90;;;;;;4064546;29;20042;-64
2022/09/18 04:05:24;;;;;;;4.88;1.50;;;12.90;99.90;;;;;;4063860;29;20081;-64
2022/09/18 04:07:24;;;;;;;2.65;1.27;;;12.80;99.90;;;;;;4064661;29;20044;-64
2022/09/18 04:09:27;;;;;;;3.15;1.35;;;12.90;99.90;;;;;;4062638;29;20048;-64
2022/09/18 04:11:28;;;;;;;;;;;12.90;99.90;;;;;;4061697;29;20489;-64
2022/09/18 04:13:29;;;;;;;2.92;1.23;;;12.80;99.90;;;;;;4063976;29;19918;-64
2022/09/18 04:15:29;;;;;;;5.85;1.25;;;12.90;99.90;;;;;;4060488;28;20582;-64
2022/09/18 04:17:30;;;;;;;5.85;1.45;;;12.90;99.90;;;;;;4063750;29;20036;-64
2022/09/18 04:19:31;;;;;;;3.78;1.52;;;12.90;99.90;;;;;;4063670;29;20032;-64
2022/09/18 04:21:31;;;;;;;2.38;0.95;;;12.90;99.90;;;;;;4063334;29;20044;-64
2022/09/18 04:23:32;;;;;;;4.88;1.80;;;12.90;99.90;;;;;;4063959;29;20500;-64
2022/09/18 04:25:32;;;;;;;2.03;0.95;;;12.90;99.90;;;;;;4062800;29;20044;-65
2022/09/18 04:27:35;;;;;;;2.85;1.15;;;12.90;99.90;;;;;;4063894;29;20035;-65
2022/09/18 04:29:35;;;;;;;2.72;1.15;;;12.90;99.90;;;;;;4063656;29;20633;-64
2022/09/18 04:31:36;;;;;;;4.32;1.23;;;12.90;99.90;;;;;;4063440;29;20028;-64
2022/09/18 04:33:36;;;;;;;4.55;1.60;;;12.90;99.90;;;;;;4064088;29;20560;-64
2022/09/18 04:35:37;;;;;;;5.65;1.73;;;12.90;99.90;;;;;;4062344;29;20055;-65
2022/09/18 04:37:37;;;;;;;3.45;1.70;;;12.90;99.90;;;;;;4064276;29;20374;-64
2022/09/18 04:39:38;;;;;;;2.58;1.45;;;13.00;99.90;;;;;;4059164;29;20485;-65
2022/09/18 04:41:39;;;;;;;7.07;1.88;;;12.90;99.90;;;;;;4055717;29;20513;-64
2022/09/18 04:43:39;;;;;;;5.20;1.83;;;12.90;99.90;;;;;;4064257;29;20028;-65
2022/09/18 04:45:44;;;;;;;4.20;1.80;;;12.90;99.90;;;;;;4063577;29;20417;-64
2022/09/18 04:47:46;;;;;;;4.15;1.90;;;12.90;99.90;;;;;;4064000;29;20510;-64
2022/09/18 04:49:47;;;;;;;5.65;2.35;;;12.90;99.90;;;;;;4061433;29;20064;-64
2022/09/18 04:51:48;;;;;;;4.25;2.13;;;12.90;99.90;;;;;;4056750;29;20040;-64
2022/09/18 04:53:48;;;;;;;10.65;2.65;;;12.90;99.90;;;;;;4063335;28;20425;-64
2022/09/18 04:55:49;;;;;;;4.00;2.10;;;12.90;99.90;;;;;;4062783;29;20404;-64
2022/09/18 04:57:49;;;;;;;3.63;2.17;;;12.90;99.90;;;;;;4063971;29;20119;-64
2022/09/18 04:59:50;;;;;;;3.53;1.92;;;12.90;99.90;;;;;;4063041;29;20096;-64
2022/09/18 05:01:50;;;;;;;3.72;2.10;;;13.00;99.90;;;;;;4062409;29;20040;-64
2022/09/18 05:03:51;;;;;;;4.55;2.30;;;13.00;99.90;;;;;;4063845;29;20125;-65
2022/09/18 05:05:53;;;;;;;6.78;2.70;;;13.00;99.90;;;;;;4062087;29;20047;-64
2022/09/18 05:07:58;;;;;;;6.85;2.28;;;13.00;99.90;;;;;;4063708;29;20076;-64
2022/09/18 05:09:59;;;;;;;6.38;2.60;;;13.00;99.90;;;;;;4061368;29;20123;-65
2022/09/18 05:12:00;;;;;;;4.03;2.17;;;13.00;99.90;;;;;;4061891;29;20052;-64
2022/09/18 05:14:01;;;;;;;4.78;2.08;;;13.00;99.90;;;;;;4064105;29;20508;-64
2022/09/18 05:16:02;;;;;;;8.95;2.10;;;13.00;99.90;;;;;;4063480;29;20029;-64
2022/09/18 05:18:04;;;;;;;11.55;2.40;;;13.00;99.90;;;;;;4063297;29;20110;-64
2022/09/18 05:20:07;;;;;;;5.30;2.45;;;12.90;99.90;;;;;;4062545;29;20036;-64
2022/09/18 05:22:07;;;;;;;4.72;1.73;;;12.90;99.90;;;;;;4060557;29;20478;-66
2022/09/18 05:24:08;;;;;;;3.38;1.65;;;12.90;99.90;;;;;;4062958;28;20442;-64
2022/09/18 05:26:08;;;;;;;5.40;2.08;;;12.90;99.90;;;;;;4061077;29;20040;-64
2022/09/18 05:28:12;;;;;;;5.35;2.13;;;12.90;99.90;;;;;;4061110;29;20036;-64
2022/09/18 05:30:12;;;;;;;5.90;1.80;;;12.80;99.90;;;;;;4059941;29;20511;-64
2022/09/18 05:32:13;;;;;;;5.30;1.88;;;12.80;99.90;;;;;;4066362;29;20047;-64
2022/09/18 05:34:13;;;;;;;5.10;1.95;;;12.80;99.90;;;;;;4065837;29;20040;-64
2022/09/18 05:36:14;;;;;;;9.13;2.42;;;12.70;99.90;;;;;;4065704;29;20032;-64
2022/09/18 05:38:15;;;;;;;6.05;1.80;;;12.80;99.90;;;;;;4066138;29;20032;-64
2022/09/18 05:40:15;;;;;;;4.20;1.83;;;12.80;99.90;;;;;;4063733;29;20496;-65
2022/09/18 05:42:16;;;;;;;5.35;1.38;;;12.70;99.90;;;;;;4066053;29;20123;-65
2022/09/18 05:44:17;;;;;;;8.10;1.92;;;12.70;99.90;;;;;;4064830;29;20024;-64
2022/09/18 05:46:17;;;;;;;4.93;1.42;;;12.80;99.90;;;;;;4064655;29;20028;-64
2022/09/18 05:48:18;;;;;;;4.75;1.30;;;12.80;99.90;;;;;;4064803;29;20473;-65
2022/09/18 05:50:20;;;;;;;6.63;1.58;;;12.80;99.90;;;;;;4059848;29;20511;-65
2022/09/18 05:52:20;;;;;;;3.03;1.38;;;12.80;99.90;;;;;;4060390;29;20112;-65
2022/09/18 05:54:21;;;;;;;4.07;1.15;;;12.80;99.90;;;;;;4058283;28;20036;-65
2022/09/18 05:56:22;;;;;;;3.65;1.48;;;12.80;99.90;;;;;;4061574;29;20043;-65
2022/09/18 05:58:23;;;;;;;5.82;1.73;;;12.90;99.90;;;;;;4063803;29;20032;-64
2022/09/18 06:00:25;;;;;;;6.85;1.25;;;12.90;99.90;;;;;;4062324;29;20032;-65
2022/09/18 06:02:25;;;;;;;2.67;1.13;;;13.00;99.90;;;;;;4064634;29;20401;-65
2022/09/18 06:04:26;;;;;;;2.67;1.30;;;12.90;99.90;;;;;;4066462;29;20047;-64
2022/09/18 06:06:28;;;;;;;3.20;1.10;;;13.00;99.90;;;;;;4056518;29;20036;-65
2022/09/18 06:08:28;;;;;;;4.07;1.25;;;13.00;99.90;;;;;;4057375;29;20032;-64
2022/09/18 06:10:31;;;;;;;3.67;1.10;;;13.00;99.90;;;;;;4062513;29;20674;-63
2022/09/18 06:12:31;;;;;;;5.15;1.35;;;13.00;99.90;;;;;;4066264;29;20119;-63
2022/09/18 06:14:32;;;;;;;5.72;1.48;;;13.00;99.90;;;;;;4065040;29;20374;-63
2022/09/18 06:16:32;;;;;;;3.70;1.10;;;13.00;99.90;;;;;;4064304;29;20474;-63
2022/09/18 06:18:33;;;;;;;3.42;1.25;;;13.00;99.90;;;;;;4061666;29;20549;-63
2022/09/18 06:20:34;;;;;;;4.50;1.35;;;13.00;99.90;;;;;;4063806;29;20536;-63
2022/09/18 06:22:35;;;;;;;4.50;1.48;;;13.00;99.90;;;;;;4063198;29;20044;-63
2022/09/18 06:24:36;;;;;;;2.47;1.17;;;13.00;99.90;;;;;;4062821;29;20051;-63
2022/09/18 06:26:36;;;;;;;3.72;1.17;;;13.00;99.90;;;;;;4059602;29;20044;-64
2022/09/18 06:28:37;;;;;;;5.15;1.42;;;12.90;99.90;;;;;;4058755;28;20032;-63
2022/09/18 06:30:37;;;;;;;4.35;1.08;;;12.90;99.90;;;;;;4056966;28;20103;-63
2022/09/18 06:32:38;;;;;;;2.70;1.10;;;12.90;99.90;;;;;;4061161;28;20099;-64
2022/09/18 06:34:39;;;;;;;4.60;1.10;;;12.90;99.90;;;;;;4064574;29;20036;-64
2022/09/18 06:36:41;;;;;;;4.18;1.20;;;12.90;99.90;;;;;;4058212;28;20127;-68
2022/09/18 06:38:41;;;;;;;3.42;1.20;;;12.90;99.90;;;;;;4063588;29;20036;-64
2022/09/18 06:40:52;;;;;;;3.88;0.90;;;12.80;99.90;;;;;;4058792;28;20481;-63
2022/09/18 06:42:56;;;;;;;7.03;1.60;;;12.90;99.90;;;;;;4061659;29;20040;-63
2022/09/18 06:44:57;;;;;;;3.70;1.10;;;12.90;99.90;;;;;;4056770;29;20048;-63
2022/09/18 06:46:58;;;;;;;2.13;1.08;;;12.90;99.90;;;;;;4059081;28;20036;-63
2022/09/18 06:48:59;;;;;;;4.05;1.17;;;12.90;99.90;;;;;;4057849;29;20051;-63
2022/09/18 06:50:59;;;;;;;2.10;0.93;;;12.90;99.90;;;;;;4061750;29;20135;-63
2022/09/18 06:53:04;;;;;;;4.07;1.00;;;12.80;99.90;;;;;;4059984;29;20032;-63
2022/09/18 06:55:05;;;;;;;2.88;1.20;;;12.90;99.90;;;;;;4060070;29;20036;-63
2022/09/18 06:57:07;;;;;;;3.97;1.02;;;12.80;99.90;;;;;;4061601;28;20038;-63
2022/09/18 06:59:07;;;;;;;4.57;1.08;;;12.80;99.90;;;;;;4064524;29;20036;-63
2022/09/18 07:01:08;;;;;;;5.93;0.90;;;12.80;99.90;;;;;;4059163;28;20028;-63
2022/09/18 07:03:09;;;;;;;2.72;0.98;;;12.80;99.90;;;;;;4065589;29;20039;-63
2022/09/18 07:05:10;;;;;;;2.78;0.90;;;12.80;99.90;;;;;;4061633;29;20406;-64
2022/09/18 07:07:10;;;;;;;5.72;1.25;;;12.80;99.90;;;;;;4059758;29;20052;-63
2022/09/18 07:09:11;;;;;;;3.40;1.02;;;12.90;99.90;;;;;;4058027;28;20037;-64
2022/09/18 07:11:12;;;;;;;5.35;1.23;;;12.90;99.90;;;;;;4057750;28;20056;-63
2022/09/18 07:13:12;;;;;;;1.80;0.88;;;12.90;99.90;;;;;;4060154;29;20041;-63
2022/09/18 07:15:15;;;;;;;4.82;1.17;;;12.90;99.90;;;;;;4064784;29;20028;-63
2022/09/18 07:17:16;;;;;;;1.83;0.90;;;12.90;99.90;;;;;;4064029;29;20036;-63
2022/09/18 07:19:16;;;;;;;2.28;0.95;;;12.90;99.90;;;;;;4062005;29;20040;-64
2022/09/18 07:21:17;;;;;;;2.58;0.80;;;13.00;99.90;;;;;;4060946;28;20449;-63
2022/09/18 07:23:18;;;;;;;4.20;1.10;;;13.00;99.90;;;;;;4064404;29;20039;-63
2022/09/18 07:25:18;;;;;;;3.75;0.98;;;13.00;99.90;;;;;;4064104;29;20044;-63
2022/09/18 07:27:19;;;;;;;4.30;1.02;;;13.10;99.90;;;;;;4065048;29;20040;-63
2022/09/18 07:29:20;;;;;;;3.85;1.02;;;13.10;99.90;;;;;;4063553;29;20564;-63
2022/09/18 07:31:21;;;;;;;2.83;0.98;;;13.20;99.90;;;;;;4062787;29;20040;-64
2022/09/18 07:33:21;;;;;;;4.03;1.25;;;13.20;99.90;;;;;;4062738;29;20536;-63
2022/09/18 07:35:22;;;;;;;2.25;1.20;;;13.20;99.90;;;;;;4057150;28;20375;-63
2022/09/18 07:37:24;;;;;;;2.92;0.90;;;13.30;99.90;;;;;;4060247;28;20052;-63
2022/09/18 07:39:25;;;;;;;6.22;1.02;;;13.30;99.90;;;;;;4059818;29;20569;-63
2022/09/18 07:41:25;;;;;;;2.97;0.93;;;13.30;99.90;;;;;;4063858;29;20044;-64
2022/09/18 07:43:26;;;;;;;8.13;1.48;;;13.40;99.90;;;;;;4064604;29;20401;-65
2022/09/18 07:45:27;;;;;;;5.40;1.30;;;13.40;99.90;;;;;;4063205;29;20040;-65
2022/09/18 07:47:27;;;;;;;2.20;0.80;;;13.40;99.90;;;;;;4059028;29;20043;-63
2022/09/18 07:49:28;;;;;;;3.80;1.15;;;13.40;99.90;;;;;;4062990;28;20485;-63
2022/09/18 07:51:29;;;;;;;5.88;1.55;;;13.50;99.90;;;;;;4063466;29;20079;-63
2022/09/18 07:53:29;;;;;;;3.00;1.00;;;13.40;99.90;;;;;;4064707;29;20036;-63
2022/09/18 07:55:33;;;;;;;3.65;1.20;;;13.50;99.90;;;;;;4063454;29;20111;-64
2022/09/18 07:57:33;;;;;;;10.35;1.85;;;13.50;99.90;;;;;;4060313;29;20032;-63
2022/09/18 07:59:34;;;;;;;6.50;1.60;;;13.50;99.90;;;;;;4063155;29;20055;-64
2022/09/18 08:01:34;;;;;;;4.80;1.35;;;13.60;99.90;;;;;;4063840;29;20032;-63
2022/09/18 08:03:36;;;;;;;2.05;1.17;;;13.60;99.90;;;;;;4064212;29;20040;-63
2022/09/18 08:05:38;;;;;;;5.97;1.55;;;13.60;99.90;;;;;;4063666;29;20491;-63
2022/09/18 08:07:38;;;;;;;6.60;1.20;;;13.60;99.90;;;;;;4063531;28;20044;-63
2022/09/18 08:09:40;;;;;;;3.05;1.10;;;13.60;99.90;;;;;;4062787;29;20048;-64
2022/09/18 08:11:41;;;;;;;7.25;1.60;;;13.70;99.90;;;;;;4061639;28;20051;-65
2022/09/18 08:13:41;;;;;;;6.82;1.55;;;13.60;99.90;;;;;;4062702;29;20413;-64
2022/09/18 08:15:42;;;;;;;5.25;1.23;;;13.70;99.90;;;;;;4062781;29;20040;-64
2022/09/18 08:17:44;;;;;;;5.95;1.60;;;13.70;99.90;;;;;;4064146;29;20032;-64
2022/09/18 08:19:45;;;;;;;5.22;1.33;;;13.60;99.90;;;;;;4060378;29;20489;-63
2022/09/18 08:21:45;;;;;;;4.00;1.20;;;13.70;99.90;;;;;;4062943;29;20040;-63
2022/09/18 08:23:46;;;;;;;5.53;1.10;;;13.70;99.90;;;;;;4062697;29;20032;-63
2022/09/18 08:25:47;;;;;;;4.55;1.17;;;13.70;99.90;;;;;;4062406;29;20071;-64
2022/09/18 08:27:48;;;;;;;5.28;1.00;;;13.80;99.90;;;;;;4063577;29;20032;-63
2022/09/18 08:29:48;;;;;;;3.75;1.15;;;13.70;99.90;;;;;;4060520;29;20854;-63
2022/09/18 08:31:49;;;;;;;4.18;1.40;;;13.70;99.90;;;;;;4060126;29;20122;-63
2022/09/18 08:33:51;;;;;;;3.42;1.40;;;13.70;99.90;;;;;;4062906;28;20040;-63
2022/09/18 08:35:53;;;;;;;2.50;1.08;;;13.70;99.90;;;;;;4062689;29;20040;-63
2022/09/18 08:37:54;;;;;;;4.20;1.10;;;13.80;99.90;;;;;;4060417;28;20032;-64
2022/09/18 08:39:55;;;;;;;2.05;0.63;;;13.80;99.90;;;;;;4061733;28;20040;-63
2022/09/18 08:42:26;;;;;;;2.17;0.88;;;13.80;99.90;;;;;;4059042;28;20038;-64
2022/09/18 08:44:29;;;;;;;5.38;1.05;;;13.90;99.90;;;;;;4059477;29;20405;-63
2022/09/18 08:46:32;;;;;;;4.45;1.27;;;13.80;99.90;;;;;;4059825;29;20036;-63
2022/09/18 08:49:04;;;;;;;3.58;1.08;;;13.80;99.90;;;;;;4063718;29;20044;-63
2022/09/18 08:51:33;;;;;;;2.83;1.10;;;13.80;99.90;;;;;;4060659;29;20029;-63
2022/09/18 08:53:40;;;;;;;1.92;0.80;;;13.80;99.90;;;;;;4057784;28;20035;-63
2022/09/18 08:55:44;;;;;;;4.55;1.17;;;13.90;99.90;;;;;;4061920;29;20032;-64
2022/09/18 08:57:48;;;;;;;5.75;1.50;;;13.90;99.90;;;;;;4063159;29;20035;-63
2022/09/18 09:00:00;;;;;;;5.53;1.20;;;14.00;99.90;;;;;;4063231;29;20108;-63
2022/09/18 09:02:29;;;;;;;6.25;1.50;;;13.90;99.90;;;;;;4060214;28;20043;-65
2022/09/18 09:04:30;;;;;;;3.60;0.80;;;14.00;99.90;;;;;;4063049;29;20043;-63
2022/09/18 09:07:04;;;;;;;4.28;1.20;;;14.00;99.90;;;;;;4064123;29;20486;-66
2022/09/18 09:09:39;;;;;;;4.47;1.45;;;14.10;99.90;;;;;;4064386;29;20521;-64
2022/09/18 09:12:11;;;;;;;6.05;1.30;;;14.10;99.90;;;;;;4032696;29;20035;-64
2022/09/18 09:14:39;;;;;;;5.55;1.48;;;14.10;99.90;;;;;;4054234;29;20044;-64
2022/09/18 09:16:42;;;;;;;6.13;1.40;;;14.10;99.90;;;;;;4062204;29;20072;-64
2022/09/18 09:19:01;;;;;;;3.08;1.17;;;14.20;99.90;;;;;;4065744;29;20043;-64
2022/09/18 09:21:13;;;;;;;6.47;1.50;;;14.20;99.90;;;;;;4061105;29;20135;-63
2022/09/18 09:23:17;;;;;;;5.28;1.15;;;14.20;99.90;;;;;;4061846;29;20036;-64
2022/09/18 09:25:21;;;;;;;2.75;1.08;;;14.30;99.90;;;;;;4061292;29;20119;-63
2022/09/18 09:27:36;;;;;;;3.53;1.40;;;14.30;99.90;;;;;;4059189;29;20071;-63
2022/09/18 09:29:40;;;;;;;5.60;1.20;;;14.30;99.90;;;;;;4063145;28;20504;-63
2022/09/18 09:31:45;;;;;;;2.63;1.30;;;14.40;99.90;;;;;;4061214;28;20039;-63
2022/09/18 09:34:13;;;;;;;6.97;1.30;;;14.40;99.90;;;;;;4062618;29;20481;-63
2022/09/18 09:36:19;;;;;;;4.78;1.30;;;14.40;99.90;;;;;;4058741;29;20111;-63
2022/09/18 09:38:39;;;;;;;5.38;1.52;;;14.40;99.90;;;;;;4062396;28;20046;-63
2022/09/18 09:40:51;;;;;;;3.03;1.13;;;14.40;99.90;;;;;;4060277;28;20037;-65
2022/09/18 09:43:04;;;;;;;4.53;1.25;;;14.40;99.90;;;;;;4050756;28;20075;-63
2022/09/18 09:45:11;;;;;;;;;;;14.50;99.90;;;;;;4078581;28;20083;-64
2022/09/18 09:47:12;;;;;;;3.90;1.10;;;14.50;99.90;;;;;;4060483;28;19915;-64
2022/09/18 09:49:21;;;;;;;4.50;1.30;;;14.60;99.90;;;;;;4059974;28;20043;-63
2022/09/18 09:51:42;;;;;;;2.92;1.23;;;14.60;99.90;;;;;;4057011;29;20080;-63
2022/09/18 09:53:43;;;;;;;4.70;1.50;;;14.70;99.90;;;;;;4064242;29;20473;-63
2022/09/18 09:55:50;;;;;;;3.88;1.15;;;14.70;99.90;;;;;;4066715;29;20040;-63
2022/09/18 09:58:03;;;;;;;5.00;1.30;;;14.70;99.90;;;;;;4064994;29;20489;-63
2022/09/18 10:00:12;;;;;;;3.35;1.08;;;14.70;99.90;;;;;;4064383;29;20374;-63
2022/09/18 10:02:31;;;;;;;3.78;1.23;;;14.70;99.90;;;;;;4062387;29;20032;-63
2022/09/18 10:04:47;;;;;;;4.80;1.30;;;14.70;99.90;;;;;;4063840;29;20044;-63
2022/09/18 10:06:55;;;;;;;5.40;1.40;;;14.70;99.90;;;;;;4065172;28;20390;-63
2022/09/18 10:09:03;;;;;;;4.72;1.52;;;14.70;99.90;;;;;;4063253;29;20021;-63
2022/09/18 10:11:10;;;;;;;2.47;1.13;;;14.80;99.90;;;;;;4064134;29;20497;-63
2022/09/18 10:13:21;;;;;;;3.83;0.95;;;14.80;99.90;;;;;;4062273;29;20052;-63
2022/09/18 10:15:37;;;;;;;9.15;1.52;;;14.80;99.90;;;;;;4060607;28;20212;-63
2022/09/18 10:17:40;;;;;;;4.40;1.08;;;14.90;99.90;;;;;;4062842;28;20047;-63
2022/09/18 10:19:41;;;;;;;;;;;14.80;99.90;;;;;;4064569;29;20032;-63
2022/09/18 10:21:44;;;;;;;3.25;1.23;;;14.90;99.90;;;;;;4063490;29;20144;-63
2022/09/18 10:24:10;;;;;;;4.75;1.30;;;14.90;99.90;;;;;;4064328;29;20032;-63
2022/09/18 10:26:22;;;;;;;4.25;1.50;;;14.90;99.90;;;;;;4051486;29;20043;-66
2022/09/18 10:28:25;;;;;;;4.88;1.00;;;14.90;99.90;;;;;;4062626;29;20043;-63
2022/09/18 10:30:25;;;;;;;4.13;1.38;;;14.80;99.90;;;;;;4060043;29;20087;-63
2022/09/18 10:32:35;;;;;;;3.50;1.10;;;14.80;99.90;;;;;;4063176;29;20041;-62
2022/09/18 10:34:44;;;;;;;2.83;1.05;;;14.80;99.90;;;;;;4064496;29;20516;-63
2022/09/18 10:36:46;;;;;;;3.17;1.45;;;14.70;99.90;;;;;;4061711;29;20032;-64
2022/09/18 10:38:48;;;;;;;4.07;1.37;;;14.70;99.90;;;;;;4062607;29;20572;-63
2022/09/18 10:40:49;;;;;;;4.55;1.35;;;14.60;99.90;;;;;;4063148;29;20020;-64
2022/09/18 10:42:53;;;;;;;2.78;0.98;;;14.50;99.90;;;;;;4062407;29;20408;-63
2022/09/18 10:44:57;;;;;;;4.53;1.52;;;14.40;99.90;;;;;;4064876;29;20054;-64
2022/09/18 10:47:17;;;;;;;4.00;1.40;;;14.30;99.90;;;;;;4065107;29;20349;-62
2022/09/18 10:49:30;;;;;;;9.52;1.65;;;14.30;99.90;;;;;;4065068;29;20111;-62
2022/09/18 10:51:31;;;;;;;6.28;1.20;;;14.20;99.90;;;;;;4063395;29;20051;-63
2022/09/18 10:53:36;;;;;;;3.38;1.00;;;14.20;99.90;;;;;;4061571;29;20457;-62